createdAt,value
2023-04-10T00:01:36.277Z,102102.59
2023-04-10T00:04:05.175Z,102097.16
2023-04-10T00:06:35.047Z,102098.63
2023-04-10T00:09:03.363Z,102089.22
2023-04-10T00:11:31.723Z,102086.03
2023-04-10T00:13:59.956Z,102089.84
2023-04-10T00:16:28.296Z,102082.88
2023-04-10T00:18:56.502Z,102074.78
2023-04-10T00:21:24.726Z,102066.78
2023-04-10T00:23:54.469Z,102075.69
2023-04-10T00:26:23.920Z,102075.22
2023-04-10T00:28:52.216Z,102082.53
2023-04-10T00:31:20.639Z,102078.72
2023-04-10T00:33:48.942Z,102082.53
2023-04-10T00:36:17.338Z,102070.94
2023-04-10T00:38:45.695Z,102060.91
2023-04-10T00:41:15.424Z,102060.91
2023-04-10T00:43:43.788Z,102050.41
2023-04-10T00:46:12.599Z,102044.53
2023-04-10T00:48:41.344Z,102048.66
2023-04-10T00:51:09.813Z,102052.75
2023-04-10T00:53:38.116Z,102049.13
2023-04-10T00:56:08.081Z,102047.34
2023-04-10T00:58:37.649Z,102037.50
2023-04-10T01:01:06.372Z,102038.13
2023-04-10T01:03:34.921Z,102026.38
2023-04-10T01:06:12.042Z,102027.28
2023-04-10T01:08:50.028Z,102027.59
2023-04-10T01:11:27.823Z,102024.78
2023-04-10T01:14:07.772Z,102018.88
2023-04-10T01:16:43.162Z,102017.13
2023-04-10T01:19:27.268Z,102006.94
2023-04-10T01:21:57.088Z,102005.66
2023-04-10T01:24:49.438Z,101992.31
2023-04-10T01:27:38.196Z,101991.84
2023-04-10T01:30:10.434Z,101992.44
2023-04-10T01:32:41.029Z,102007.09
2023-04-10T01:35:10.859Z,101999.91
2023-04-10T01:37:43.818Z,101993.22
2023-04-10T01:40:16.785Z,101990.03
2023-04-10T01:42:53.110Z,101998.97
2023-04-10T01:45:28.171Z,101987.19
2023-04-10T01:47:57.462Z,101998.31
2023-04-10T01:50:28.541Z,102000.22
2023-04-10T01:52:57.850Z,102003.19
2023-04-10T01:55:27.751Z,102005.88
2023-04-10T01:57:56.582Z,101996.53
2023-04-10T02:00:26.421Z,101994.44
2023-04-10T02:02:54.833Z,101989.88
2023-04-10T02:05:25.845Z,101991.47
2023-04-10T02:08:03.490Z,101987.97
2023-04-10T02:10:42.036Z,101983.63
2023-04-10T02:13:12.871Z,101987.75
2023-04-10T02:15:47.789Z,101982.19
2023-04-10T02:18:19.247Z,101980.94
2023-04-10T02:20:47.729Z,101981.56
2023-04-10T02:23:19.285Z,101976.94
2023-04-10T02:25:47.689Z,101972.66
2023-04-10T02:28:15.978Z,101977.41
2023-04-10T02:30:45.710Z,101972.00
2023-04-10T02:33:13.961Z,101970.38
2023-04-10T02:35:42.298Z,101969.91
2023-04-10T02:38:10.541Z,101955.94
2023-04-10T02:40:38.786Z,101964.03
2023-04-10T02:43:06.987Z,101961.31
2023-04-10T02:45:35.223Z,101964.03
2023-04-10T02:48:07.013Z,101961.16
2023-04-10T02:50:35.519Z,101963.06
2023-04-10T02:53:03.771Z,101956.09
2023-04-10T02:55:31.977Z,101954.50
2023-04-10T02:58:00.211Z,101952.09
2023-04-10T03:00:29.014Z,101947.00
2023-04-10T03:02:57.293Z,101944.94
2023-04-10T03:05:27.117Z,101939.34
2023-04-10T03:07:55.603Z,101945.53
2023-04-10T03:10:24.642Z,101940.97
2023-04-10T03:12:52.884Z,101936.38
2023-04-10T03:15:21.292Z,101933.16
2023-04-10T03:17:49.603Z,101931.75
2023-04-10T03:20:18.030Z,101929.34
2023-04-10T03:22:47.696Z,101927.75
2023-04-10T03:25:16.036Z,101922.34
2023-04-10T03:27:44.419Z,101926.16
2023-04-10T03:30:13.087Z,101926.47
2023-04-10T03:32:43.047Z,101919.81
2023-04-10T03:35:11.931Z,101918.22
2023-04-10T03:37:40.168Z,101912.81
2023-04-10T03:40:12.077Z,101907.75
2023-04-10T03:42:40.420Z,101915.53
2023-04-10T03:45:10.281Z,101907.75
2023-04-10T03:47:38.697Z,101908.06
2023-04-10T03:50:08.165Z,101909.63
2023-04-10T03:52:36.402Z,101910.75
2023-04-10T03:55:04.863Z,101902.66
2023-04-10T03:57:34.466Z,101921.53
2023-04-10T04:00:02.893Z,101911.06
2023-04-10T04:02:31.184Z,101905.16
2023-04-10T04:04:59.547Z,101901.22
2023-04-10T04:07:28.133Z,101894.22
2023-04-10T04:09:56.628Z,101892.91
2023-04-10T04:12:24.978Z,101892.44
2023-04-10T04:14:54.906Z,101893.88
2023-04-10T04:17:23.178Z,101888.78
2023-04-10T04:19:51.398Z,101899.88
2023-04-10T04:22:21.489Z,101892.91
2023-04-10T04:24:49.746Z,101895.41
2023-04-10T04:27:18.009Z,101890.31
2023-04-10T04:29:46.659Z,101896.84
2023-04-10T04:32:16.900Z,101893.66
2023-04-10T04:34:45.262Z,101886.16
2023-04-10T04:37:13.513Z,101886.16
2023-04-10T04:39:41.667Z,101882.19
2023-04-10T04:42:09.888Z,101882.03
2023-04-10T04:44:38.164Z,101891.53
2023-04-10T04:47:06.439Z,101882.13
2023-04-10T04:49:36.023Z,101884.34
2023-04-10T04:52:04.253Z,101878.00
2023-04-10T04:54:32.492Z,101882.59
2023-04-10T04:57:01.659Z,101881.00
2023-04-10T04:59:29.913Z,101882.09
2023-04-10T05:01:58.652Z,101872.44
2023-04-10T05:04:27.230Z,101870.03
2023-04-10T05:06:57.140Z,101873.34
2023-04-10T05:09:25.475Z,101872.56
2023-04-10T05:11:54.557Z,101875.25
2023-04-10T05:14:23.220Z,101871.28
2023-04-10T05:16:51.661Z,101869.69
2023-04-10T05:19:19.934Z,101863.78
2023-04-10T05:21:51.775Z,101877.28
2023-04-10T05:24:21.577Z,101868.69
2023-04-10T05:26:49.926Z,101876.47
2023-04-10T05:29:18.279Z,101871.88
2023-04-10T05:31:46.545Z,101861.09
2023-04-10T05:34:14.862Z,101857.50
2023-04-10T05:36:43.069Z,101841.47
2023-04-10T05:39:11.386Z,101855.63
2023-04-10T05:41:41.550Z,101854.22
2023-04-10T05:44:09.942Z,101857.59
2023-04-10T05:46:38.172Z,101846.97
2023-04-10T05:49:06.475Z,101844.91
2023-04-10T05:51:34.766Z,101848.28
2023-04-10T05:54:03.032Z,101852.53
2023-04-10T05:56:31.309Z,101847.63
2023-04-10T05:59:00.969Z,101862.13
2023-04-10T06:01:29.165Z,101858.16
2023-04-10T06:03:57.579Z,101846.94
2023-04-10T06:06:27.414Z,101851.25
2023-04-10T06:08:55.948Z,101849.53
2023-04-10T06:11:24.268Z,101855.09
2023-04-10T06:13:52.571Z,101848.28
2023-04-10T06:16:22.313Z,101853.50
2023-04-10T06:18:52.798Z,101865.13
2023-04-10T06:21:21.440Z,101857.00
2023-04-10T06:23:49.656Z,101849.09
2023-04-10T06:26:18.158Z,101845.59
2023-04-10T06:28:46.562Z,101848.91
2023-04-10T06:31:14.982Z,101849.56
2023-04-10T06:33:45.243Z,101842.88
2023-04-10T06:36:13.534Z,101846.34
2023-04-10T06:38:41.796Z,101844.88
2023-04-10T06:41:10.519Z,101845.31
2023-04-10T06:43:40.613Z,101837.69
2023-04-10T06:46:09.185Z,101845.28
2023-04-10T06:48:37.431Z,101835.53
2023-04-10T06:51:07.975Z,101836.97
2023-04-10T06:53:36.312Z,101835.03
2023-04-10T06:56:04.992Z,101832.63
2023-04-10T06:58:33.251Z,101837.97
2023-04-10T07:01:04.835Z,101829.81
2023-04-10T07:03:33.861Z,101827.69
2023-04-10T07:06:03.382Z,101822.56
2023-04-10T07:08:33.145Z,101822.50
2023-04-10T07:11:01.430Z,101823.22
2023-04-10T07:13:29.826Z,101819.53
2023-04-10T07:15:58.143Z,101822.31
2023-04-10T07:18:26.620Z,101808.66
2023-04-10T07:20:55.356Z,101804.19
2023-04-10T07:23:23.614Z,101806.03
2023-04-10T07:25:53.517Z,101785.16
2023-04-10T07:28:21.751Z,101803.75
2023-04-10T07:30:49.966Z,101779.75
2023-04-10T07:33:18.380Z,101772.78
2023-04-10T07:35:46.734Z,101766.22
2023-04-10T07:38:15.085Z,101769.72
2023-04-10T07:40:43.281Z,101762.84
2023-04-10T07:43:13.001Z,101762.72
2023-04-10T07:45:42.040Z,101758.06
2023-04-10T07:48:10.392Z,101751.88
2023-04-10T07:50:38.649Z,101759.66
2023-04-10T07:53:08.062Z,101768.28
2023-04-10T07:55:40.119Z,101757.19
2023-04-10T07:58:08.412Z,101747.28
2023-04-10T08:00:38.772Z,101751.69
2023-04-10T08:03:07.553Z,101743.31
2023-04-10T08:05:36.476Z,101741.06
2023-04-10T08:08:04.954Z,101732.59
2023-04-10T08:10:33.558Z,101735.78
2023-04-10T08:13:01.940Z,101742.75
2023-04-10T08:15:30.398Z,101735.22
2023-04-10T08:18:00.116Z,101728.88
2023-04-10T08:20:28.936Z,101724.09
2023-04-10T08:23:03.022Z,101730.66
2023-04-10T08:25:34.555Z,101723.50
2023-04-10T08:28:02.875Z,101709.41
2023-04-10T08:30:31.261Z,101718.78
2023-04-10T08:33:01.355Z,101708.84
2023-04-10T08:35:29.736Z,101709.00
2023-04-10T08:38:12.704Z,101699.78
2023-04-10T08:40:44.653Z,101697.69
2023-04-10T08:43:13.181Z,101705.41
2023-04-10T08:45:42.614Z,101708.38
2023-04-10T08:48:13.540Z,101702.69
2023-04-10T08:50:44.230Z,101698.56
2023-04-10T08:53:15.436Z,101709.03
2023-04-10T08:55:43.616Z,101692.06
2023-04-10T08:58:13.772Z,101701.66
2023-04-10T09:00:42.455Z,101699.38
2023-04-10T09:03:14.289Z,101699.44
2023-04-10T09:05:42.752Z,101717.28
2023-04-10T09:08:12.284Z,101696.13
2023-04-10T09:10:40.616Z,101705.56
2023-04-10T09:13:08.962Z,101696.94
2023-04-10T09:15:59.116Z,101688.44
2023-04-10T09:18:47.208Z,101687.06
2023-04-10T09:21:18.351Z,101684.03
2023-04-10T09:23:48.359Z,101681.19
2023-04-10T09:26:28.464Z,101680.66
2023-04-10T09:29:02.508Z,101675.84
2023-04-10T09:31:36.393Z,101667.41
2023-04-10T09:34:15.492Z,101671.75
2023-04-10T09:36:45.268Z,101658.66
2023-04-10T09:39:14.285Z,101655.69
2023-04-10T09:41:50.828Z,101660.09
2023-04-10T09:44:21.617Z,101656.28
2023-04-10T09:46:50.105Z,101647.38
2023-04-10T09:49:19.782Z,101642.81
2023-04-10T09:51:49.651Z,101649.16
2023-04-10T09:54:17.917Z,101640.56
2023-04-10T09:56:48.655Z,101630.47
2023-04-10T09:59:18.833Z,101637.19
2023-04-10T10:01:47.507Z,101628.22
2023-04-10T10:04:17.389Z,101611.13
2023-04-10T10:06:47.603Z,101603.41
2023-04-10T10:09:17.148Z,101612.84
2023-04-10T10:11:45.470Z,101598.38
2023-04-10T10:14:18.849Z,101590.56
2023-04-10T10:16:51.486Z,101580.13
2023-04-10T10:19:26.646Z,101580.53
2023-04-10T10:21:57.426Z,101591.09
2023-04-10T10:24:27.589Z,101571.56
2023-04-10T10:26:57.219Z,101570.00
2023-04-10T10:29:26.009Z,101554.00
2023-04-10T10:31:55.365Z,101563.81
2023-04-10T10:34:24.751Z,101560.34
2023-04-10T10:36:53.396Z,101553.34
2023-04-10T10:39:35.265Z,101554.56
2023-04-10T10:42:10.691Z,101553.03
2023-04-10T10:44:49.028Z,101564.00
2023-04-10T10:47:21.953Z,101542.16
2023-04-10T10:49:57.825Z,101546.00
2023-04-10T10:52:44.253Z,101536.69
2023-04-10T10:55:41.112Z,101523.06
2023-04-10T10:58:11.299Z,101515.75
2023-04-10T11:01:20.269Z,101513.38
2023-04-10T11:03:49.044Z,101504.84
2023-04-10T11:06:19.573Z,101503.34
2023-04-10T11:08:50.206Z,101506.97
2023-04-10T11:11:23.287Z,101495.38
2023-04-10T11:14:18.449Z,101482.22
2023-04-10T11:16:48.946Z,101489.72
2023-04-10T11:19:22.646Z,101484.72
2023-04-10T11:22:15.581Z,101482.50
2023-04-10T11:25:02.588Z,101479.06
2023-04-10T11:27:49.483Z,101471.34
2023-04-10T11:30:32.706Z,101468.69
2023-04-10T11:33:02.099Z,101468.78
2023-04-10T11:35:31.998Z,101458.25
2023-04-10T11:38:14.621Z,101452.44
2023-04-10T11:40:57.096Z,101452.06
2023-04-10T11:43:26.768Z,101448.97
2023-04-10T11:46:06.171Z,101449.72
2023-04-10T11:48:34.884Z,101430.97
2023-04-10T11:51:10.194Z,101429.41
2023-04-10T11:53:38.768Z,101428.63
2023-04-10T11:56:12.920Z,101414.53
2023-04-10T11:58:42.650Z,101421.13
2023-04-10T12:01:14.313Z,101410.09
2023-04-10T12:03:44.884Z,101411.22
2023-04-10T12:06:14.824Z,101419.03
2023-04-10T12:08:46.037Z,101421.31
2023-04-10T12:11:14.682Z,101415.84
2023-04-10T12:13:44.286Z,101413.88
2023-04-10T12:16:13.146Z,101408.44
2023-04-10T12:18:41.808Z,101406.50
2023-04-10T12:21:10.193Z,101402.22
2023-04-10T12:23:40.180Z,101401.03
2023-04-10T12:26:14.601Z,101405.75
2023-04-10T12:28:53.282Z,101406.63
2023-04-10T12:31:29.365Z,101400.31
2023-04-10T12:33:58.527Z,101393.31
2023-04-10T12:36:30.101Z,101386.28
2023-04-10T12:38:58.980Z,101375.31
2023-04-10T12:41:29.739Z,101372.22
2023-04-10T12:44:11.741Z,101381.97
2023-04-10T12:46:41.612Z,101364.34
2023-04-10T12:49:15.478Z,101357.34
2023-04-10T12:51:46.015Z,101364.41
2023-04-10T12:54:29.864Z,101365.19
2023-04-10T12:56:58.257Z,101346.41
2023-04-10T12:59:28.163Z,101345.59
2023-04-10T13:01:57.043Z,101347.50
2023-04-10T13:04:28.344Z,101345.13
2023-04-10T13:06:57.156Z,101325.53
2023-04-10T13:09:25.419Z,101334.53
2023-04-10T13:11:53.694Z,101320.03
2023-04-10T13:14:22.705Z,101311.41
2023-04-10T13:16:52.378Z,101325.50
2023-04-10T13:19:20.629Z,101325.09
2023-04-10T13:21:50.745Z,101308.28
2023-04-10T13:24:19.069Z,101303.19
2023-04-10T13:26:47.361Z,101286.41
2023-04-10T13:29:15.619Z,101284.78
2023-04-10T13:31:44.027Z,101280.09
2023-04-10T13:34:13.771Z,101275.78
2023-04-10T13:36:42.079Z,101264.78
2023-04-10T13:39:10.368Z,101268.72
2023-04-10T13:41:38.596Z,101271.91
2023-04-10T13:44:07.060Z,101264.44
2023-04-10T13:46:35.326Z,101261.75
2023-04-10T13:49:06.169Z,101241.06
2023-04-10T13:51:35.867Z,101232.81
2023-04-10T13:54:04.932Z,101233.56
2023-04-10T13:56:33.214Z,101231.16
2023-04-10T13:59:01.459Z,101221.03
2023-04-10T14:01:29.875Z,101215.94
2023-04-10T14:03:58.402Z,101205.38
2023-04-10T14:06:27.187Z,101197.19
2023-04-10T14:08:57.026Z,101190.19
2023-04-10T14:11:25.384Z,101179.66
2023-04-10T14:13:53.752Z,101187.44
2023-04-10T14:16:22.025Z,101177.31
2023-04-10T14:18:50.401Z,101183.63
2023-04-10T14:21:20.573Z,101161.34
2023-04-10T14:23:49.238Z,101152.69
2023-04-10T14:26:18.970Z,101139.00
2023-04-10T14:28:47.346Z,101152.34
2023-04-10T14:31:15.973Z,101128.88
2023-04-10T14:33:44.355Z,101124.56
2023-04-10T14:36:12.729Z,101128.81
2023-04-10T14:38:41.037Z,101134.31
2023-04-10T14:41:09.356Z,101136.66
2023-04-10T14:43:39.414Z,101134.72
2023-04-10T14:46:08.431Z,101129.66
2023-04-10T14:48:36.722Z,101123.00
2023-04-10T14:51:05.625Z,101120.66
2023-04-10T14:53:33.996Z,101120.66
2023-04-10T14:56:02.304Z,101121.03
2023-04-10T14:58:30.664Z,101125.75
2023-04-10T15:01:00.392Z,101122.22
2023-04-10T15:03:28.777Z,101119.47
2023-04-10T15:06:01.083Z,101123.00
2023-04-10T15:08:29.405Z,101117.91
2023-04-10T15:10:57.726Z,101117.19
2023-04-10T15:13:26.081Z,101114.03
2023-04-10T15:15:54.485Z,101107.41
2023-04-10T15:18:25.529Z,101109.34
2023-04-10T15:20:55.308Z,101128.56
2023-04-10T15:23:23.665Z,101115.31
2023-04-10T15:25:52.394Z,101104.03
2023-04-10T15:28:20.694Z,101104.84
2023-04-10T15:30:51.962Z,101108.81
2023-04-10T15:33:21.732Z,101115.09
2023-04-10T15:35:51.487Z,101113.16
2023-04-10T15:38:19.870Z,101107.72
2023-04-10T15:40:48.153Z,101102.66
2023-04-10T15:43:16.629Z,101091.34
2023-04-10T15:45:44.977Z,101084.31
2023-04-10T15:48:13.386Z,101080.75
2023-04-10T15:50:43.055Z,101095.56
2023-04-10T15:53:12.753Z,101077.22
2023-04-10T15:55:41.476Z,101076.75
2023-04-10T15:58:09.711Z,101041.25
2023-04-10T16:00:37.969Z,101033.78
2023-04-10T16:03:06.996Z,101026.75
2023-04-10T16:05:35.445Z,101015.00
2023-04-10T16:08:04.387Z,101024.72
2023-04-10T16:10:34.118Z,101033.25
2023-04-10T16:13:04.386Z,101038.72
2023-04-10T16:15:36.538Z,101019.63
2023-04-10T16:18:06.051Z,101011.03
2023-04-10T16:20:34.636Z,101009.53
2023-04-10T16:23:03.120Z,101005.63
2023-04-10T16:25:32.884Z,101012.66
2023-04-10T16:28:02.592Z,101010.28
2023-04-10T16:30:30.790Z,100993.94
2023-04-10T16:32:59.068Z,100977.94
2023-04-10T16:35:27.550Z,100981.81
2023-04-10T16:37:56.022Z,100965.47
2023-04-10T16:40:27.596Z,100972.09
2023-04-10T16:42:57.253Z,100972.44
2023-04-10T16:45:25.572Z,100971.25
2023-04-10T16:47:53.883Z,100966.59
2023-04-10T16:50:22.193Z,100955.66
2023-04-10T16:52:50.608Z,100950.22
2023-04-10T16:55:19.210Z,100953.31
2023-04-10T16:57:47.493Z,100944.75
2023-04-10T17:00:18.271Z,100947.88
2023-04-10T17:02:48.678Z,100947.88
2023-04-10T17:05:16.982Z,100949.38
2023-04-10T17:07:45.320Z,100959.50
2023-04-10T17:10:13.656Z,100957.94
2023-04-10T17:12:42.522Z,100960.19
2023-04-10T17:15:12.454Z,100955.09
2023-04-10T17:17:42.175Z,100962.06
2023-04-10T17:20:11.623Z,100970.97
2023-04-10T17:22:40.724Z,100963.94
2023-04-10T17:25:10.077Z,100965.50
2023-04-10T17:27:40.492Z,100963.13
2023-04-10T17:30:13.519Z,100958.78
2023-04-10T17:32:43.452Z,100965.41
2023-04-10T17:35:11.770Z,100971.22
2023-04-10T17:37:40.064Z,100970.44
2023-04-10T17:40:10.563Z,100980.91
2023-04-10T17:42:38.773Z,100973.94
2023-04-10T17:45:08.612Z,100980.94
2023-04-10T17:47:37.217Z,100978.63
2023-04-10T17:50:08.996Z,100998.06
2023-04-10T17:52:37.332Z,101000.00
2023-04-10T17:55:06.568Z,100989.88
2023-04-10T17:57:34.859Z,100990.22
2023-04-10T18:00:03.482Z,101004.97
2023-04-10T18:02:31.951Z,101000.25
2023-04-10T18:05:03.546Z,101010.31
2023-04-10T18:07:33.587Z,101014.13
2023-04-10T18:10:01.845Z,101017.91
2023-04-10T18:12:30.332Z,101017.81
2023-04-10T18:14:58.521Z,101035.56
2023-04-10T18:17:26.911Z,101035.81
2023-04-10T18:19:56.582Z,101037.50
2023-04-10T18:22:24.922Z,101043.63
2023-04-10T18:24:55.199Z,101035.69
2023-04-10T18:27:23.573Z,101037.06
2023-04-10T18:29:51.936Z,101060.56
2023-04-10T18:32:20.554Z,101051.88
2023-04-10T18:34:49.803Z,101039.69
2023-04-10T18:37:18.097Z,101042.94
2023-04-10T18:39:46.332Z,101036.97
2023-04-10T18:42:16.016Z,101036.03
2023-04-10T18:44:44.329Z,101037.47
2023-04-10T18:47:12.667Z,101041.25
2023-04-10T18:49:41.044Z,101037.34
2023-04-10T18:52:09.434Z,101026.06
2023-04-10T18:54:37.907Z,101022.91
2023-04-10T18:57:07.348Z,101020.50
2023-04-10T18:59:38.992Z,101021.22
2023-04-10T19:02:08.932Z,101010.69
2023-04-10T19:04:37.526Z,101006.44
2023-04-10T19:07:06.008Z,101003.66
2023-04-10T19:09:34.339Z,100996.25
2023-04-10T19:12:02.746Z,100971.00
2023-04-10T19:14:30.974Z,100963.16
2023-04-10T19:17:05.913Z,100961.88
2023-04-10T19:19:34.868Z,100960.19
2023-04-10T19:22:03.130Z,100965.78
2023-04-10T19:24:33.618Z,100978.56
2023-04-10T19:27:02.498Z,100979.34
2023-04-10T19:29:31.300Z,100991.72
2023-04-10T19:32:00.889Z,100984.75
2023-04-10T19:34:29.213Z,101018.81
2023-04-10T19:36:57.512Z,101031.25
2023-04-10T19:39:25.779Z,101013.78
2023-04-10T19:41:56.213Z,101011.88
2023-04-10T19:44:24.671Z,101021.13
2023-04-10T19:46:53.091Z,101016.84
2023-04-10T19:49:22.944Z,101000.13
2023-04-10T19:51:51.390Z,100995.50
2023-04-10T19:54:19.621Z,101008.69
2023-04-10T19:56:47.852Z,101002.84
2023-04-10T19:59:16.176Z,101006.69
2023-04-10T20:01:44.582Z,100993.53
2023-04-10T20:04:13.070Z,100984.88
2023-04-10T20:06:43.150Z,100988.28
2023-04-10T20:09:11.838Z,100991.72
2023-04-10T20:11:40.065Z,100976.09
2023-04-10T20:14:08.383Z,100970.97
2023-04-10T20:16:36.913Z,100958.84
2023-04-10T20:19:05.694Z,100952.09
2023-04-10T20:21:34.727Z,100940.31
2023-04-10T20:24:04.730Z,100933.63
2023-04-10T20:26:33.624Z,100919.94
2023-04-10T20:29:02.048Z,100918.53
2023-04-10T20:31:31.663Z,100921.47
2023-04-10T20:34:01.691Z,100922.13
2023-04-10T20:36:30.107Z,100918.88
2023-04-10T20:38:58.532Z,100921.41
2023-04-10T20:41:28.445Z,100932.53
2023-04-10T20:43:57.478Z,100908.41
2023-04-10T20:46:31.317Z,100915.69
2023-04-10T20:49:00.137Z,100901.34
2023-04-10T20:51:28.917Z,100911.72
2023-04-10T20:53:57.217Z,100919.81
2023-04-10T20:56:33.194Z,100932.53
2023-04-10T20:59:11.270Z,100934.44
2023-04-10T21:01:39.997Z,100943.38
2023-04-10T21:04:08.574Z,100945.25
2023-04-10T21:06:36.953Z,100945.63
2023-04-10T21:09:05.925Z,100927.47
2023-04-10T21:11:35.663Z,100910.44
2023-04-10T21:14:03.906Z,100886.06
2023-04-10T21:16:32.279Z,100886.84
2023-04-10T21:19:00.703Z,100882.59
2023-04-10T21:21:30.375Z,100894.19
2023-04-10T21:23:58.758Z,100872.53
2023-04-10T21:26:27.259Z,100868.63
2023-04-10T21:28:57.046Z,100876.31
2023-04-10T21:31:25.335Z,100876.31
2023-04-10T21:33:53.654Z,100886.69
2023-04-10T21:36:21.941Z,100912.19
2023-04-10T21:38:50.198Z,100899.38
2023-04-10T21:41:18.533Z,100881.53
2023-04-10T21:43:46.787Z,100869.25
2023-04-10T21:46:16.420Z,100873.16
2023-04-10T21:48:44.735Z,100885.56
2023-04-10T21:51:13.014Z,100898.38
2023-04-10T21:53:41.303Z,100906.50
2023-04-10T21:56:10.044Z,100922.03
2023-04-10T21:58:38.742Z,100931.72
2023-04-10T22:01:08.430Z,100941.44
2023-04-10T22:03:38.634Z,100928.31
2023-04-10T22:06:07.448Z,100920.63
2023-04-10T22:08:38.311Z,100898.19
2023-04-10T22:11:07.414Z,100888.50
2023-04-10T22:13:35.688Z,100893.53
2023-04-10T22:16:05.373Z,100892.72
2023-04-10T22:18:33.640Z,100901.25
2023-04-10T22:21:03.343Z,100886.53
2023-04-10T22:23:32.478Z,100890.44
2023-04-10T22:26:01.507Z,100880.38
2023-04-10T22:28:29.996Z,100892.78
2023-04-10T22:30:58.384Z,100898.19
2023-04-10T22:33:26.676Z,100879.22
2023-04-10T22:35:54.949Z,100874.91
2023-04-10T22:38:24.682Z,100871.09
2023-04-10T22:40:55.881Z,100887.72
2023-04-10T22:43:24.072Z,100885.03
2023-04-10T22:45:52.328Z,100882.31
2023-04-10T22:48:20.754Z,100873.84
2023-04-10T22:50:49.040Z,100871.91
2023-04-10T22:53:17.301Z,100861.88
2023-04-10T22:55:46.861Z,100866.50
2023-04-10T22:58:15.116Z,100861.09
2023-04-10T23:00:43.291Z,100852.97
2023-04-10T23:03:11.754Z,100841.38
2023-04-10T23:05:40.100Z,100846.00
2023-04-10T23:08:08.448Z,100844.84
2023-04-10T23:10:36.663Z,100847.56
2023-04-10T23:13:06.417Z,100843.28
2023-04-10T23:15:35.069Z,100851.06
2023-04-10T23:18:03.356Z,100864.25
2023-04-10T23:20:31.661Z,100852.28
2023-04-10T23:22:59.861Z,100865.03
2023-04-10T23:25:28.084Z,100872.81
2023-04-10T23:27:56.355Z,100872.81
2023-04-10T23:30:26.270Z,100875.50
2023-04-10T23:32:54.639Z,100872.03
2023-04-10T23:35:23.119Z,100861.19
2023-04-10T23:37:51.642Z,100869.66
2023-04-10T23:40:20.635Z,100880.16
2023-04-10T23:42:48.807Z,100873.16
2023-04-10T23:45:17.035Z,100876.66
2023-04-10T23:47:47.313Z,100873.94
2023-04-10T23:50:17.096Z,100883.19
2023-04-10T23:52:50.755Z,100882.06
2023-04-10T23:55:19.208Z,100891.38
2023-04-10T23:57:47.443Z,100879.78
